createdAt,value
2018-05-05T00:01:36.517Z,4.83
2018-05-05T00:04:03.296Z,5.23
2018-05-05T00:06:29.990Z,5.40
2018-05-05T00:08:56.718Z,6.00
2018-05-05T00:11:23.418Z,4.73
2018-05-05T00:13:50.163Z,4.37
2018-05-05T00:16:16.882Z,4.47
2018-05-05T00:18:43.581Z,4.40
2018-05-05T00:21:10.326Z,4.07
2018-05-05T00:23:37.029Z,4.87
2018-05-05T00:26:03.772Z,4.60
2018-05-05T00:28:30.508Z,4.50
2018-05-05T00:30:57.216Z,4.77
2018-05-05T00:33:24.093Z,4.70
2018-05-05T00:35:50.788Z,3.90
2018-05-05T00:38:17.489Z,4.77
2018-05-05T00:40:44.206Z,3.90
2018-05-05T00:43:10.904Z,4.00
2018-05-05T00:45:37.650Z,4.20
2018-05-05T00:48:04.438Z,4.60
2018-05-05T00:50:31.140Z,5.10
2018-05-05T00:52:57.864Z,5.37
2018-05-05T00:55:24.560Z,4.70
2018-05-05T00:57:51.306Z,3.97
2018-05-05T01:00:18.033Z,4.60
2018-05-05T01:02:44.736Z,5.47
2018-05-05T01:05:11.485Z,4.93
2018-05-05T01:07:38.183Z,4.70
2018-05-05T01:10:04.883Z,4.43
2018-05-05T01:12:31.601Z,4.10
2018-05-05T01:19:19.481Z,4.83
2018-05-05T01:21:46.175Z,5.23
2018-05-05T01:24:12.919Z,5.10
2018-05-05T01:26:39.641Z,4.50
2018-05-05T01:29:06.366Z,4.00
2018-05-05T01:31:33.094Z,5.00
2018-05-05T01:33:59.842Z,3.97
2018-05-05T01:36:26.555Z,4.60
2018-05-05T01:38:53.289Z,4.53
2018-05-05T01:41:20.019Z,4.70
2018-05-05T01:43:46.743Z,4.87
2018-05-05T01:46:13.439Z,4.13
2018-05-05T01:48:40.171Z,4.40
2018-05-05T01:51:06.876Z,3.70
2018-05-05T01:53:33.577Z,4.20
2018-05-05T01:56:00.301Z,3.70
2018-05-05T01:58:27.152Z,3.50
2018-05-05T02:00:53.850Z,4.47
2018-05-05T02:03:20.583Z,4.40
2018-05-05T02:05:47.312Z,4.60
2018-05-05T02:08:14.053Z,3.77
2018-05-05T02:10:40.784Z,4.03
2018-05-05T02:13:07.479Z,3.50
2018-05-05T02:15:34.202Z,4.40
2018-05-05T02:18:00.917Z,3.43
2018-05-05T02:20:27.613Z,3.57
2018-05-05T02:22:54.325Z,4.10
2018-05-05T02:25:21.013Z,4.23
2018-05-05T02:27:47.741Z,3.87
2018-05-05T02:30:14.473Z,5.00
2018-05-05T02:32:41.173Z,4.13
2018-05-05T02:35:07.877Z,4.80
2018-05-05T02:37:34.625Z,4.47
2018-05-05T02:40:01.342Z,4.70
2018-05-05T02:42:28.059Z,4.63
2018-05-05T02:44:54.791Z,4.70
2018-05-05T02:47:23.348Z,4.47
2018-05-05T02:49:50.057Z,4.23
2018-05-05T02:52:16.794Z,4.73
2018-05-05T02:54:43.519Z,5.17
2018-05-05T02:57:10.246Z,5.00
2018-05-05T02:59:36.972Z,5.10
2018-05-05T03:02:03.696Z,4.00
2018-05-05T03:09:10.671Z,5.27
2018-05-05T03:11:37.501Z,5.83
2018-05-05T03:14:04.148Z,5.40
2018-05-05T03:16:30.848Z,5.87
2018-05-05T03:18:57.593Z,6.47
2018-05-05T03:21:24.289Z,6.70
2018-05-05T03:23:51.003Z,7.37
2018-05-05T03:26:17.715Z,6.87
2018-05-05T03:28:44.396Z,6.67
2018-05-05T03:31:11.123Z,6.20
2018-05-05T03:33:37.842Z,8.20
2018-05-05T03:36:04.580Z,7.30
2018-05-05T03:38:31.285Z,7.70
2018-05-05T03:40:57.991Z,7.00
2018-05-05T03:43:24.716Z,6.80
2018-05-05T03:45:51.430Z,7.37
2018-05-05T03:48:18.140Z,6.77
2018-05-05T03:50:44.824Z,8.47
2018-05-05T03:53:11.524Z,8.23
2018-05-05T03:55:38.237Z,7.60
2018-05-05T03:58:04.936Z,6.57
2018-05-05T04:00:37.451Z,6.10
2018-05-05T04:03:10.043Z,5.70
2018-05-05T04:05:39.629Z,5.63
2018-05-05T04:08:06.359Z,5.87
2018-05-05T04:10:33.074Z,5.70
2018-05-05T04:12:59.791Z,5.23
2018-05-05T04:15:26.498Z,5.70
2018-05-05T04:17:53.260Z,5.17
2018-05-05T04:20:19.977Z,6.10
2018-05-05T04:22:46.679Z,5.67
2018-05-05T04:25:13.441Z,6.60
2018-05-05T04:27:40.239Z,5.70
2018-05-05T04:30:06.931Z,5.80
2018-05-05T04:32:33.649Z,6.57
2018-05-05T04:35:00.377Z,5.40
2018-05-05T04:37:27.096Z,5.50
2018-05-05T04:39:53.827Z,5.77
2018-05-05T04:42:20.531Z,5.60
2018-05-05T04:44:47.273Z,5.47
2018-05-05T04:47:13.975Z,5.23
2018-05-05T04:49:40.668Z,5.27
2018-05-05T04:52:07.387Z,6.10
2018-05-05T04:54:34.081Z,6.13
2018-05-05T04:57:00.824Z,6.20
2018-05-05T04:59:27.526Z,5.70
2018-05-05T05:01:54.257Z,5.97
2018-05-05T05:04:20.964Z,6.67
2018-05-05T05:06:47.661Z,5.67
2018-05-05T05:09:14.409Z,5.70
2018-05-05T05:11:41.115Z,6.00
2018-05-05T05:14:07.822Z,5.80
2018-05-05T05:16:34.543Z,5.93
2018-05-05T05:19:01.243Z,6.53
2018-05-05T05:21:27.957Z,5.97
2018-05-05T05:23:54.665Z,6.97
2018-05-05T05:26:21.366Z,5.50
2018-05-05T05:28:48.184Z,6.20
2018-05-05T05:31:14.836Z,6.37
2018-05-05T05:33:41.577Z,7.00
2018-05-05T05:36:08.294Z,6.03
2018-05-05T05:38:35.016Z,6.70
2018-05-05T05:41:01.784Z,6.50
2018-05-05T05:43:28.487Z,6.10
2018-05-05T05:45:55.225Z,6.20
2018-05-05T05:48:21.925Z,5.83
2018-05-05T05:50:48.638Z,6.33
2018-05-05T05:53:15.380Z,6.27
2018-05-05T05:55:42.142Z,5.70
2018-05-05T05:58:08.797Z,6.30
2018-05-05T06:00:35.557Z,5.27
2018-05-05T06:03:02.273Z,6.50
2018-05-05T06:05:29.008Z,6.10
2018-05-05T06:07:55.742Z,7.30
2018-05-05T06:10:22.442Z,6.33
2018-05-05T06:12:49.177Z,5.60
2018-05-05T06:15:15.877Z,5.93
2018-05-05T06:17:42.596Z,5.70
2018-05-05T06:20:09.393Z,5.67
2018-05-05T06:22:36.112Z,5.13
2018-05-05T06:25:02.845Z,6.10
2018-05-05T06:27:29.576Z,6.37
2018-05-05T06:29:56.298Z,6.17
2018-05-05T06:32:23.020Z,5.60
2018-05-05T06:34:49.751Z,5.10
2018-05-05T06:37:16.555Z,5.80
2018-05-05T06:39:43.236Z,6.00
2018-05-05T06:42:09.969Z,6.00
2018-05-05T06:44:36.731Z,6.43
2018-05-05T06:47:03.482Z,5.83
2018-05-05T06:49:30.249Z,6.07
2018-05-05T06:51:56.970Z,6.07
2018-05-05T06:54:23.693Z,8.17
2018-05-05T06:56:50.441Z,7.10
2018-05-05T06:59:17.205Z,7.20
2018-05-05T07:01:43.874Z,7.10
2018-05-05T07:04:10.598Z,6.93
2018-05-05T07:06:37.300Z,6.90
2018-05-05T07:09:04.106Z,6.90
2018-05-05T07:11:30.870Z,5.90
2018-05-05T07:13:57.567Z,7.07
2018-05-05T07:16:24.297Z,5.93
2018-05-05T07:18:51.132Z,5.83
2018-05-05T07:21:17.840Z,6.23
2018-05-05T07:23:44.586Z,6.00
2018-05-05T07:26:11.328Z,5.83
2018-05-05T07:28:38.050Z,6.27
2018-05-05T07:31:04.812Z,6.60
2018-05-05T07:33:31.556Z,6.87
2018-05-05T07:35:58.348Z,6.10
2018-05-05T07:38:25.063Z,6.63
2018-05-05T07:40:51.834Z,6.27
2018-05-05T07:43:18.540Z,6.37
2018-05-05T07:45:45.272Z,6.60
2018-05-05T07:48:12.001Z,6.70
2018-05-05T07:50:38.734Z,6.30
2018-05-05T07:53:05.495Z,6.87
2018-05-05T07:55:32.209Z,7.27
2018-05-05T07:57:58.942Z,7.30
2018-05-05T08:00:25.696Z,7.63
2018-05-05T08:02:52.413Z,7.10
2018-05-05T08:05:19.179Z,7.33
2018-05-05T08:07:45.898Z,7.10
2018-05-05T08:10:12.646Z,6.83
2018-05-05T08:12:39.388Z,7.37
2018-05-05T08:15:06.111Z,7.33
2018-05-05T08:17:32.844Z,7.23
2018-05-05T08:19:59.564Z,7.27
2018-05-05T08:22:26.298Z,6.47
2018-05-05T08:24:53.018Z,7.60
2018-05-05T08:27:19.742Z,6.67
2018-05-05T08:29:46.438Z,7.13
2018-05-05T08:32:13.159Z,6.80
2018-05-05T08:34:39.861Z,6.40
2018-05-05T08:37:06.570Z,7.07
2018-05-05T08:39:33.308Z,6.70
2018-05-05T08:42:00.024Z,6.43
2018-05-05T08:44:26.730Z,6.87
2018-05-05T08:46:53.472Z,6.30
2018-05-05T08:49:20.171Z,5.90
2018-05-05T08:51:46.886Z,7.20
2018-05-05T08:54:13.593Z,7.43
2018-05-05T08:56:40.294Z,6.33
2018-05-05T08:59:07.041Z,7.00
2018-05-05T09:01:33.752Z,6.20
2018-05-05T09:04:00.452Z,7.23
2018-05-05T09:06:27.268Z,6.90
2018-05-05T09:08:53.985Z,6.60
2018-05-05T09:11:20.724Z,8.10
2018-05-05T09:13:47.453Z,8.40
2018-05-05T09:16:14.182Z,7.80
2018-05-05T09:18:40.892Z,6.97
2018-05-05T09:21:07.608Z,7.20
2018-05-05T09:23:34.405Z,7.63
2018-05-05T09:26:01.109Z,7.30
2018-05-05T09:28:27.843Z,6.60
2018-05-05T09:30:54.560Z,7.70
2018-05-05T09:33:21.296Z,7.80
2018-05-05T09:35:48.009Z,6.87
2018-05-05T09:38:14.756Z,7.13
2018-05-05T09:40:41.465Z,8.27
2018-05-05T09:43:08.254Z,8.33
2018-05-05T09:45:34.937Z,7.33
2018-05-05T09:48:01.642Z,7.60
2018-05-05T09:50:28.361Z,7.33
2018-05-05T09:52:55.065Z,7.47
2018-05-05T09:55:21.805Z,7.17
2018-05-05T09:57:48.516Z,7.60
2018-05-05T10:00:15.254Z,8.07
2018-05-05T10:02:41.996Z,9.03
2018-05-05T10:05:08.717Z,7.60
2018-05-05T10:07:35.417Z,7.90
2018-05-05T10:10:02.145Z,8.00
2018-05-05T10:12:28.857Z,7.70
2018-05-05T10:14:55.653Z,8.27
2018-05-05T10:17:22.376Z,7.63
2018-05-05T10:19:49.109Z,7.20
2018-05-05T10:22:15.824Z,7.43
2018-05-05T10:24:42.536Z,8.30
2018-05-05T10:27:09.259Z,9.07
2018-05-05T10:29:35.999Z,8.50
2018-05-05T10:32:02.706Z,8.07
2018-05-05T10:34:29.420Z,8.27
2018-05-05T10:36:56.117Z,8.57
2018-05-05T10:39:22.850Z,7.60
2018-05-05T10:41:49.573Z,8.77
2018-05-05T10:44:16.370Z,10.00
2018-05-05T10:46:43.104Z,8.50
2018-05-05T10:49:09.804Z,7.50
2018-05-05T10:51:36.604Z,8.43
2018-05-05T10:54:03.335Z,9.17
2018-05-05T10:56:30.050Z,14.80
2018-05-05T10:58:56.797Z,12.80
2018-05-05T11:01:23.584Z,9.40
2018-05-05T11:03:50.282Z,10.80
2018-05-05T11:06:16.996Z,10.47
2018-05-05T11:08:43.700Z,8.57
2018-05-05T11:11:10.429Z,8.23
2018-05-05T11:13:37.137Z,9.20
2018-05-05T11:16:03.836Z,8.70
2018-05-05T11:18:30.569Z,9.30
2018-05-05T11:20:57.326Z,9.13
2018-05-05T11:23:24.027Z,8.53
2018-05-05T11:25:50.787Z,9.03
2018-05-05T11:28:17.765Z,8.57
2018-05-05T11:30:44.534Z,8.30
2018-05-05T11:33:11.281Z,8.03
2018-05-05T11:35:37.982Z,7.73
2018-05-05T11:38:04.726Z,8.93
2018-05-05T11:40:31.898Z,8.83
2018-05-05T11:42:58.643Z,8.00
2018-05-05T11:45:25.347Z,7.00
2018-05-05T11:47:53.292Z,8.60
2018-05-05T11:50:20.109Z,8.03
2018-05-05T11:52:46.814Z,7.70
2018-05-05T11:55:13.568Z,8.73
2018-05-05T11:57:40.282Z,8.10
2018-05-05T12:00:06.990Z,7.97
2018-05-05T12:02:33.742Z,8.77
2018-05-05T12:05:00.454Z,7.93
2018-05-05T12:07:27.179Z,8.90
2018-05-05T12:09:53.910Z,8.23
2018-05-05T12:12:20.611Z,7.97
2018-05-05T12:14:47.344Z,8.27
2018-05-05T12:17:14.129Z,8.23
2018-05-05T12:19:40.866Z,7.97
2018-05-05T12:22:08.118Z,8.60
2018-05-05T12:24:34.884Z,8.13
2018-05-05T12:27:01.702Z,7.97
2018-05-05T12:29:28.397Z,8.10
2018-05-05T12:31:55.217Z,7.97
2018-05-05T12:34:22.180Z,8.57
2018-05-05T12:36:48.902Z,8.23
2018-05-05T12:39:16.650Z,8.50
2018-05-05T12:41:43.643Z,8.80
2018-05-05T12:44:10.389Z,8.30
2018-05-05T12:46:37.287Z,8.67
2018-05-05T12:49:04.121Z,8.70
2018-05-05T12:51:30.873Z,9.20
2018-05-05T12:53:57.620Z,8.27
2018-05-05T12:56:24.362Z,8.93
2018-05-05T12:58:51.083Z,9.47
2018-05-05T13:01:17.941Z,10.80
2018-05-05T13:03:44.725Z,8.70
2018-05-05T13:06:11.439Z,7.70
2018-05-05T13:08:38.207Z,9.00
2018-05-05T13:11:04.951Z,8.73
2018-05-05T13:13:31.670Z,9.50
2018-05-05T13:15:58.419Z,9.60
2018-05-05T13:18:25.143Z,9.13
2018-05-05T13:20:51.987Z,9.80
2018-05-05T13:23:18.699Z,10.23
2018-05-05T13:25:45.472Z,9.60
2018-05-05T13:28:12.210Z,9.73
2018-05-05T13:30:38.972Z,10.70
2018-05-05T13:33:05.719Z,9.90
2018-05-05T13:35:32.458Z,10.23
2018-05-05T13:37:59.235Z,9.70
2018-05-05T13:40:26.054Z,9.50
2018-05-05T13:42:52.782Z,9.53
2018-05-05T13:45:19.544Z,10.10
2018-05-05T13:47:46.249Z,10.40
2018-05-05T13:50:12.971Z,9.60
2018-05-05T13:52:39.727Z,10.90
2018-05-05T13:55:06.485Z,9.83
2018-05-05T13:57:33.215Z,10.87
2018-05-05T13:59:59.980Z,10.30
2018-05-05T14:02:26.737Z,9.97
2018-05-05T14:04:53.481Z,10.47
2018-05-05T14:07:20.217Z,10.20
2018-05-05T14:09:46.945Z,9.63
2018-05-05T14:12:13.721Z,10.47
2018-05-05T14:14:40.483Z,11.27
2018-05-05T14:17:07.228Z,11.00
2018-05-05T14:19:34.131Z,10.60
2018-05-05T14:22:00.874Z,10.70
2018-05-05T14:24:27.594Z,10.47
2018-05-05T14:26:54.363Z,10.37
2018-05-05T14:29:21.082Z,11.57
2018-05-05T14:31:47.894Z,9.80
2018-05-05T14:34:14.624Z,10.27
2018-05-05T14:36:41.360Z,10.73
2018-05-05T14:39:08.113Z,10.30
2018-05-05T14:41:34.854Z,10.30
2018-05-05T14:44:01.595Z,10.60
2018-05-05T14:46:28.332Z,11.13
2018-05-05T14:48:55.539Z,10.27
2018-05-05T14:51:22.392Z,9.83
2018-05-05T14:53:49.049Z,10.43
2018-05-05T14:56:15.801Z,10.20
2018-05-05T14:58:42.564Z,10.47
2018-05-05T15:01:09.283Z,11.37
2018-05-05T15:03:36.065Z,12.03
2018-05-05T15:06:02.808Z,11.00
2018-05-05T15:08:29.517Z,10.00
2018-05-05T15:10:56.251Z,9.83
2018-05-05T15:13:23.053Z,10.60
2018-05-05T15:15:49.774Z,11.33
2018-05-05T15:18:16.521Z,10.47
2018-05-05T15:20:43.216Z,9.40
2018-05-05T15:23:09.930Z,11.50
2018-05-05T15:25:36.665Z,11.57
2018-05-05T15:28:03.412Z,11.37
2018-05-05T15:30:30.189Z,11.47
2018-05-05T15:32:56.922Z,14.83
2018-05-05T15:35:23.654Z,16.73
2018-05-05T15:37:50.400Z,12.37
2018-05-05T15:40:17.130Z,12.47
2018-05-05T15:42:43.865Z,29.87
2018-05-05T15:45:10.618Z,10.77
2018-05-05T15:47:37.338Z,39.30
2018-05-05T15:50:04.098Z,17.73
2018-05-05T15:52:30.825Z,14.10
2018-05-05T15:54:57.593Z,13.50
2018-05-05T15:57:24.399Z,12.13
2018-05-05T15:59:51.453Z,16.27
2018-05-05T16:02:18.226Z,12.70
2018-05-05T16:04:44.974Z,13.60
2018-05-05T16:07:11.680Z,11.37
2018-05-05T16:09:38.409Z,12.47
2018-05-05T16:12:05.153Z,12.87
2018-05-05T16:14:59.229Z,12.30
2018-05-05T16:29:08.048Z,12.93
2018-05-05T16:31:34.759Z,12.67
2018-05-05T16:34:01.473Z,13.83
2018-05-05T16:51:04.090Z,13.77
2018-05-05T16:53:30.870Z,13.90
2018-05-05T16:55:57.580Z,15.17
2018-05-05T16:58:24.332Z,14.30
2018-05-05T17:00:51.061Z,13.37
2018-05-05T17:03:17.829Z,14.87
2018-05-05T17:05:44.530Z,13.67
2018-05-05T17:08:11.261Z,14.87
2018-05-05T17:10:37.987Z,14.60
2018-05-05T17:13:04.705Z,13.53
2018-05-05T17:15:31.472Z,13.20
2018-05-05T17:17:58.200Z,15.00
2018-05-05T17:20:25.005Z,13.70
2018-05-05T17:22:51.715Z,14.40
2018-05-05T17:25:18.445Z,13.03
2018-05-05T17:27:45.204Z,13.70
2018-05-05T17:30:11.981Z,13.60
2018-05-05T17:32:38.697Z,14.83
2018-05-05T17:35:05.460Z,13.63
2018-05-05T17:37:32.162Z,14.60
2018-05-05T17:39:58.910Z,14.53
2018-05-05T17:42:25.666Z,13.47
2018-05-05T17:44:52.373Z,14.90
2018-05-05T17:47:19.122Z,14.93
2018-05-05T17:49:45.907Z,15.00
2018-05-05T17:52:12.585Z,16.20
2018-05-05T17:54:39.384Z,16.40
2018-05-05T17:57:06.182Z,14.97
2018-05-05T17:59:32.869Z,16.30
2018-05-05T18:01:59.655Z,15.63
2018-05-05T18:04:26.363Z,15.43
2018-05-05T18:06:53.141Z,15.50
2018-05-05T18:09:19.864Z,14.73
2018-05-05T18:11:46.608Z,15.10
2018-05-05T18:14:13.369Z,15.80
2018-05-05T18:16:40.102Z,15.80
2018-05-05T18:19:06.824Z,16.67
2018-05-05T18:21:33.582Z,15.20
2018-05-05T18:24:00.317Z,16.67
2018-05-05T18:26:27.853Z,15.47
2018-05-05T18:28:54.585Z,14.37
2018-05-05T18:31:21.287Z,15.60
2018-05-05T18:33:48.036Z,16.03
2018-05-05T18:39:12.997Z,16.27
2018-05-05T18:41:39.701Z,15.90
2018-05-05T18:44:06.430Z,16.23
2018-05-05T18:46:33.172Z,14.47
2018-05-05T18:48:59.892Z,16.00
2018-05-05T18:51:26.660Z,14.63
2018-05-05T18:53:53.445Z,15.23
2018-05-05T18:56:20.175Z,15.90
2018-05-05T18:58:46.946Z,15.50
2018-05-05T19:01:13.667Z,16.83
2018-05-05T19:03:40.417Z,15.77
2018-05-05T19:06:07.184Z,15.10
2018-05-05T19:08:33.938Z,16.37
2018-05-05T19:11:00.696Z,16.20
2018-05-05T19:13:27.431Z,16.23
2018-05-05T19:15:54.311Z,16.10
2018-05-05T19:18:21.099Z,16.63
2018-05-05T19:20:47.851Z,17.40
2018-05-05T19:23:14.712Z,19.40
2018-05-05T19:25:41.434Z,17.93
2018-05-05T19:28:08.273Z,18.73
2018-05-05T19:30:35.102Z,19.50
2018-05-05T19:33:01.821Z,18.43
2018-05-05T19:35:28.553Z,20.00
2018-05-05T19:37:55.345Z,18.53
2018-05-05T19:40:22.356Z,20.23
2018-05-05T19:42:49.124Z,18.47
2018-05-05T19:45:15.976Z,18.80
2018-05-05T19:47:42.740Z,19.27
2018-05-05T19:50:09.460Z,20.53
2018-05-05T19:52:36.201Z,19.57
2018-05-05T19:55:03.009Z,21.47
2018-05-05T19:57:29.754Z,20.27
2018-05-05T19:59:56.530Z,19.77
2018-05-05T20:02:23.301Z,20.53
2018-05-05T20:04:50.051Z,18.43
2018-05-05T20:07:16.796Z,18.30
2018-05-05T20:09:43.565Z,18.07
2018-05-05T20:12:10.329Z,18.00
2018-05-05T20:14:37.086Z,18.10
2018-05-05T20:17:03.852Z,18.00
2018-05-05T20:19:30.592Z,15.93
2018-05-05T20:21:57.352Z,15.30
2018-05-05T20:24:24.068Z,15.87
2018-05-05T20:26:50.814Z,16.50
2018-05-05T20:29:17.617Z,14.70
2018-05-05T20:31:44.370Z,14.90
2018-05-05T20:34:11.148Z,15.47
2018-05-05T20:36:37.889Z,15.30
2018-05-05T20:39:04.698Z,15.50
2018-05-05T20:41:31.457Z,14.83
2018-05-05T20:43:58.220Z,14.70
2018-05-05T20:46:24.979Z,14.13
2018-05-05T20:48:51.724Z,15.60
2018-05-05T20:51:18.446Z,15.93
2018-05-05T20:53:45.172Z,13.90
2018-05-05T20:56:11.934Z,13.90
2018-05-05T20:58:38.911Z,13.50
2018-05-05T21:01:05.705Z,11.10
2018-05-05T21:03:32.518Z,13.37
2018-05-05T21:05:59.333Z,13.17
2018-05-05T21:08:26.093Z,12.27
2018-05-05T21:10:52.879Z,11.00
2018-05-05T21:13:19.625Z,11.70
2018-05-05T21:15:46.387Z,11.10
2018-05-05T21:18:13.137Z,11.60
2018-05-05T21:20:39.874Z,12.17
2018-05-05T21:23:06.617Z,10.73
2018-05-05T21:25:33.478Z,12.23
2018-05-05T21:28:00.322Z,10.37
2018-05-05T21:30:27.063Z,9.77
2018-05-05T21:32:53.840Z,11.10
2018-05-05T21:35:21.581Z,11.07
2018-05-05T21:37:48.291Z,11.03
2018-05-05T21:40:15.045Z,10.37
2018-05-05T21:42:41.776Z,9.97
2018-05-05T21:45:08.474Z,9.43
2018-05-05T21:47:35.219Z,10.33
2018-05-05T21:50:01.966Z,10.10
2018-05-05T21:52:28.698Z,9.30
2018-05-05T21:54:55.473Z,9.30
2018-05-05T21:57:22.218Z,9.87
2018-05-05T21:59:48.965Z,9.60
2018-05-05T22:02:15.687Z,9.60
2018-05-05T22:04:42.457Z,10.70
2018-05-05T22:07:09.201Z,8.80
2018-05-05T22:09:35.941Z,10.40
2018-05-05T22:12:02.695Z,9.93
2018-05-05T22:14:29.442Z,9.50
2018-05-05T22:16:56.237Z,9.77
2018-05-05T22:19:23.003Z,10.00
2018-05-05T22:21:49.758Z,10.30
2018-05-05T22:24:16.495Z,9.83
2018-05-05T22:26:43.241Z,10.63
2018-05-05T22:29:09.979Z,9.67
2018-05-05T22:31:36.684Z,10.00
2018-05-05T22:34:03.440Z,10.73
2018-05-05T22:36:30.187Z,10.93
2018-05-05T22:38:56.930Z,10.77
2018-05-05T22:41:23.680Z,10.13
2018-05-05T22:43:50.397Z,10.17
2018-05-05T22:46:17.136Z,8.77
2018-05-05T22:48:43.997Z,9.83
2018-05-05T22:51:10.707Z,8.77
2018-05-05T22:53:37.461Z,9.83
2018-05-05T22:56:04.233Z,9.70
2018-05-05T22:58:30.990Z,9.77
2018-05-05T23:00:57.731Z,9.60
2018-05-05T23:03:24.468Z,9.70
2018-05-05T23:05:51.181Z,9.13
2018-05-05T23:08:17.930Z,9.67
2018-05-05T23:10:44.653Z,8.60
2018-05-05T23:13:11.388Z,9.30
2018-05-05T23:15:38.098Z,9.20
2018-05-05T23:18:04.830Z,9.40
2018-05-05T23:20:31.614Z,9.30
2018-05-05T23:22:58.313Z,9.50
2018-05-05T23:25:25.017Z,9.73
2018-05-05T23:27:51.790Z,9.93
2018-05-05T23:30:18.577Z,8.53
2018-05-05T23:32:45.242Z,9.00
2018-05-05T23:35:11.990Z,9.47
2018-05-05T23:37:38.694Z,9.00
2018-05-05T23:40:05.400Z,9.17
2018-05-05T23:42:32.216Z,9.60
2018-05-05T23:44:59.865Z,9.07
2018-05-05T23:47:26.575Z,9.33
2018-05-05T23:49:53.443Z,9.60
2018-05-05T23:52:20.149Z,9.67
2018-05-05T23:54:46.855Z,9.00
2018-05-05T23:57:13.604Z,9.40
2018-05-05T23:59:40.312Z,9.00
